createdAt,value
2019-04-03T00:01:07.777Z,47.6
2019-04-03T00:06:13.069Z,47.6
2019-04-03T00:11:18.109Z,47.8
2019-04-03T00:16:23.319Z,47.8
2019-04-03T00:21:28.462Z,47.5
2019-04-03T00:26:33.640Z,47.3
2019-04-03T00:31:38.920Z,46.9
2019-04-03T00:36:44.492Z,46.7
2019-04-03T00:41:49.462Z,46.7
2019-04-03T00:46:57.223Z,46.8
2019-04-03T00:52:02.350Z,46.9
2019-04-03T00:57:07.705Z,46.6
2019-04-03T01:02:12.989Z,46.9
2019-04-03T01:07:14.349Z,47
2019-04-03T01:12:19.424Z,47.3
2019-04-03T01:17:25.454Z,47.1
2019-04-03T01:22:30.745Z,47.1
2019-04-03T01:27:36.109Z,47.2
2019-04-03T01:32:41.471Z,47.4
2019-04-03T01:37:50.185Z,47.6
2019-04-03T01:42:56.185Z,47.6
2019-04-03T01:48:01.592Z,47.6
2019-04-03T01:53:07.215Z,47.7
2019-04-03T01:58:13.199Z,48.6
2019-04-03T02:03:18.444Z,48.5
2019-04-03T02:08:24.213Z,48.7
2019-04-03T02:13:29.232Z,48.8
2019-04-03T02:18:34.949Z,48.9
2019-04-03T02:23:40.248Z,48.8
2019-04-03T02:28:45.976Z,48.5
2019-04-03T02:33:51.554Z,48.5
2019-04-03T02:38:57.557Z,48.2
2019-04-03T02:44:03.777Z,48.4
2019-04-03T02:49:13.066Z,48.5
2019-04-03T02:54:18.524Z,48.5
2019-04-03T02:59:28.797Z,48.8
2019-04-03T03:04:34.819Z,48.8
2019-04-03T03:09:40.657Z,48.8
2019-04-03T03:14:46.234Z,49
2019-04-03T03:19:51.486Z,49.2
2019-04-03T03:25:00.906Z,49.4
2019-04-03T03:31:02.946Z,49.7
2019-04-03T03:35:40.043Z,49.7
2019-04-03T03:40:19.478Z,50
2019-04-03T03:45:24.737Z,49.9
2019-04-03T03:50:32.522Z,49.9
2019-04-03T03:55:38.660Z,50.1
2019-04-03T04:00:45.508Z,50.1
2019-04-03T04:05:59.004Z,50.1
2019-04-03T04:10:53.403Z,50
2019-04-03T04:16:06.927Z,50.1
2019-04-03T04:21:02.678Z,50
2019-04-03T04:26:08.038Z,50
2019-04-03T04:31:15.201Z,50.1
2019-04-03T04:36:20.463Z,50.1
2019-04-03T04:41:27.808Z,49.7
2019-04-03T04:46:33.502Z,49.6
2019-04-03T04:51:39.157Z,49.5
2019-04-03T04:56:43.905Z,49
2019-04-03T05:01:51.575Z,49
2019-04-03T05:06:57.980Z,49
2019-04-03T05:12:05.357Z,49
2019-04-03T05:17:10.614Z,48
2019-04-03T05:22:16.849Z,46.5
2019-04-03T05:27:21.896Z,46.5
2019-04-03T05:32:27.845Z,45.2
2019-04-03T05:37:33.502Z,45.2
2019-04-03T05:42:39.115Z,44.9
2019-04-03T05:47:44.266Z,44.8
2019-04-03T05:52:49.646Z,45.3
2019-04-03T05:57:54.842Z,46.3
2019-04-03T06:03:00.678Z,46.3
2019-04-03T06:08:05.886Z,46.3
2019-04-03T06:13:11.848Z,45.9
2019-04-03T06:18:20.306Z,44.4
2019-04-03T06:23:25.592Z,44.4
2019-04-03T06:28:30.946Z,43.4
2019-04-03T06:33:39.006Z,41
2019-04-03T06:38:43.053Z,41
2019-04-03T06:43:56.140Z,40.8
2019-04-03T06:48:51.118Z,40.8
2019-04-03T06:53:59.493Z,40.7
2019-04-03T06:59:05.094Z,40.7
2019-04-03T07:04:11.288Z,40.2
2019-04-03T07:09:38.096Z,40.2
2019-04-03T07:14:28.973Z,41.6
2019-04-03T07:19:40.960Z,41.1
2019-04-03T07:24:35.017Z,39.8
2019-04-03T07:29:49.795Z,39.4
2019-04-03T07:34:45.436Z,39.3
2019-04-03T07:39:52.849Z,35.8
2019-04-03T07:44:58.211Z,35.9
2019-04-03T07:50:02.032Z,34.4
2019-04-03T07:55:06.343Z,31.6
2019-04-03T08:00:11.881Z,30.2
2019-04-03T08:05:17.380Z,30.1
2019-04-03T08:10:21.825Z,30.1
2019-04-03T08:15:28.162Z,29.2
2019-04-03T08:20:34.673Z,28.8
2019-04-03T08:25:46.953Z,29.6
2019-04-03T08:30:43.615Z,28.8
2019-04-03T08:35:48.794Z,28.8
2019-04-03T08:40:56.003Z,28.1
2019-04-03T08:46:01.773Z,28.1
2019-04-03T08:51:07.098Z,29.4
2019-04-03T08:56:11.877Z,26.2
2019-04-03T09:01:15.665Z,26.2
2019-04-03T09:06:23.465Z,24.3
2019-04-03T09:11:29.600Z,23.4
2019-04-03T09:16:35.621Z,24
2019-04-03T09:21:42.061Z,23.3
2019-04-03T09:26:47.448Z,23.3
2019-04-03T09:31:57.976Z,24.2
2019-04-03T09:36:54.193Z,24.2
2019-04-03T09:41:59.200Z,25.1
2019-04-03T09:47:06.423Z,25.8
2019-04-03T09:52:11.612Z,25.8
2019-04-03T10:02:23.063Z,26.5
2019-04-03T10:07:31.059Z,26.2
2019-04-03T10:12:36.913Z,26.1
2019-04-03T10:17:42.117Z,26.4
2019-04-03T10:22:48.483Z,24.4
2019-04-03T10:27:54.247Z,24.3
2019-04-03T10:33:03.078Z,23.2
2019-04-03T10:38:07.773Z,23.2
2019-04-03T10:43:13.883Z,22.6
2019-04-03T10:48:20.772Z,23.2
2019-04-03T10:53:26.404Z,23.2
2019-04-03T10:58:32.238Z,21.6
2019-04-03T11:03:37.840Z,21.4
2019-04-03T11:08:43.288Z,21.5
2019-04-03T11:13:48.541Z,21.6
2019-04-03T11:19:08.223Z,20.4
2019-04-03T11:24:07.336Z,21.3
2019-04-03T11:29:13.822Z,22
2019-04-03T11:34:21.355Z,21.9
2019-04-03T11:39:27.086Z,20.4
2019-04-03T11:44:32.763Z,20.4
2019-04-03T11:49:38.749Z,20.8
2019-04-03T11:54:43.879Z,20.6
2019-04-03T11:59:50.290Z,21.1
2019-04-03T12:04:56.572Z,21.6
2019-04-03T12:10:06.076Z,21.7
2019-04-03T12:20:18.602Z,24.4
2019-04-03T12:25:25.234Z,25.4
2019-04-03T12:30:31.505Z,25.2
2019-04-03T12:35:37.375Z,25.1
2019-04-03T12:40:43.249Z,25.1
2019-04-03T12:45:51.252Z,25.1
2019-04-03T12:50:56.844Z,26.4
2019-04-03T12:56:00.687Z,27.4
2019-04-03T13:01:06.723Z,26.8
2019-04-03T13:06:15.777Z,27.4
2019-04-03T13:11:23.315Z,27.5
2019-04-03T13:16:28.948Z,27.5
2019-04-03T13:21:34.962Z,27.3
2019-04-03T13:26:41.518Z,27.6
2019-04-03T13:31:49.653Z,28
2019-04-03T13:36:55.315Z,28.2
2019-04-03T13:42:01.933Z,27.9
2019-04-03T13:47:11.564Z,27.9
2019-04-03T13:52:17.239Z,27.9
2019-04-03T13:57:23.727Z,27.6
2019-04-03T14:02:29.171Z,27.6
2019-04-03T14:07:35.162Z,27.9
2019-04-03T14:12:47.398Z,28.1
2019-04-03T14:17:59.656Z,28
2019-04-03T14:22:45.145Z,28
2019-04-03T14:27:51.121Z,28.2
2019-04-03T14:32:57.678Z,28.5
2019-04-03T14:38:04.287Z,28.5
2019-04-03T14:43:10.981Z,28.5
2019-04-03T14:48:17.225Z,28.4
2019-04-03T14:53:24.578Z,28.4
2019-04-03T14:58:30.116Z,28.2
2019-04-03T15:03:38.028Z,28.2
2019-04-03T15:13:49.557Z,28.7
2019-04-03T15:18:55.762Z,28.7
2019-04-03T15:24:02.145Z,28.9
2019-04-03T15:29:08.334Z,29
2019-04-03T15:34:13.976Z,28.9
2019-04-03T15:39:20.490Z,29
2019-04-03T15:44:29.774Z,29.1
2019-04-03T15:49:36.429Z,29.1
2019-04-03T15:54:37.531Z,29
2019-04-03T15:59:42.978Z,29
2019-04-03T16:04:48.537Z,29.2
2019-04-03T16:09:54.755Z,29.5
2019-04-03T16:14:55.247Z,29.5
2019-04-03T16:20:03.041Z,29.9
2019-04-03T16:25:09.473Z,30
2019-04-03T16:30:21.811Z,29.9
2019-04-03T16:35:19.671Z,30
2019-04-03T16:40:28.233Z,30.3
2019-04-03T16:45:36.562Z,30.5
2019-04-03T16:50:45.061Z,31
2019-04-03T16:55:48.453Z,31.6
2019-04-03T17:00:55.008Z,32.2
2019-04-03T17:06:01.076Z,32.8
2019-04-03T17:11:06.229Z,32.7
2019-04-03T17:16:10.835Z,33.4
2019-04-03T17:21:17.729Z,33.4
2019-04-03T17:26:23.788Z,33.9
2019-04-03T17:36:33.112Z,34.2
2019-04-03T17:41:40.412Z,34.1
2019-04-03T17:46:46.935Z,34.1
2019-04-03T17:51:54.123Z,33.8
2019-04-03T17:56:59.143Z,33.2
2019-04-03T18:02:04.052Z,33.2
2019-04-03T18:07:11.864Z,33.2
2019-04-03T18:12:23.832Z,33.2
2019-04-03T18:17:20.159Z,33.1
2019-04-03T18:22:27.402Z,33.2
2019-04-03T18:27:35.287Z,33.3
2019-04-03T18:32:40.259Z,33.3
2019-04-03T18:37:45.399Z,33.3
2019-04-03T18:42:52.760Z,33.6
2019-04-03T18:47:58.003Z,33.6
2019-04-03T18:53:03.096Z,33.7
2019-04-03T18:58:08.448Z,33.9
2019-04-03T19:03:13.556Z,34
2019-04-03T19:08:21.533Z,34.3
2019-04-03T19:13:26.567Z,34.4
2019-04-03T19:18:32.869Z,34.4
2019-04-03T19:23:31.132Z,34.6
2019-04-03T19:28:39.485Z,34.6
2019-04-03T19:33:50.499Z,34.6
2019-04-03T19:38:46.423Z,34.7
2019-04-03T19:43:51.272Z,34.8
2019-04-03T19:48:59.284Z,34.9
2019-04-03T19:54:04.478Z,35
2019-04-03T19:59:09.709Z,35
2019-04-03T20:04:18.321Z,35.4
2019-04-03T20:09:23.721Z,35.4
2019-04-03T20:14:36.489Z,35.9
2019-04-03T20:19:31.485Z,35.6
2019-04-03T20:24:36.389Z,35.5
2019-04-03T20:29:41.556Z,35.6
2019-04-03T20:34:48.074Z,35.9
2019-04-03T20:39:51.847Z,36
2019-04-03T20:44:57.211Z,35.8
2019-04-03T20:50:08.702Z,36.2
2019-04-03T20:55:13.954Z,36.2
2019-04-03T21:00:21.917Z,36.9
2019-04-03T21:05:27.211Z,36.2
2019-04-03T21:10:34.428Z,36.4
2019-04-03T21:15:39.880Z,36.5
2019-04-03T21:20:44.950Z,36.5
2019-04-03T21:25:50.098Z,36.7
2019-04-03T21:30:57.301Z,37
2019-04-03T21:36:02.227Z,37
2019-04-03T21:41:07.283Z,37
2019-04-03T21:46:12.427Z,37.1
2019-04-03T21:51:18.907Z,37.2
2019-04-03T21:56:25.633Z,37.3
2019-04-03T22:01:30.982Z,37.5
2019-04-03T22:06:36.040Z,37.7
2019-04-03T22:11:41.593Z,38
2019-04-03T22:16:46.790Z,38.2
2019-04-03T22:21:52.260Z,38.4
2019-04-03T22:26:57.213Z,38.6
2019-04-03T22:32:02.521Z,38.8
2019-04-03T22:37:07.497Z,38.8
2019-04-03T22:42:16.627Z,38.8
2019-04-03T22:47:25.737Z,38.9
2019-04-03T22:52:31.103Z,38.9
2019-04-03T22:57:36.086Z,39
2019-04-03T23:02:41.473Z,39.1
2019-04-03T23:07:46.429Z,39.1
2019-04-03T23:12:50.650Z,39.3
2019-04-03T23:17:55.545Z,39.3
2019-04-03T23:23:00.607Z,39.1
2019-04-03T23:28:06.231Z,39.1
2019-04-03T23:33:10.259Z,39.1
2019-04-03T23:38:15.451Z,39.1
2019-04-03T23:43:21.274Z,39.5
2019-04-03T23:48:26.890Z,39.8
2019-04-03T23:53:34.673Z,40
2019-04-03T23:58:39.857Z,40.1
